sensor_id;sensor_type;location;lat;lon;timestamp;P1;durP1;ratioP1;P2;durP2;ratioP2
6485;SDS011;3276;48.490;9.222;2024-02-21T00:01:39;15.37;;;4.33;;
6485;SDS011;3276;48.490;9.222;2024-02-21T00:04:05;8.13;;;4.43;;
6485;SDS011;3276;48.490;9.222;2024-02-21T00:06:31;5.93;;;3.90;;
6485;SDS011;3276;48.490;9.222;2024-02-21T00:08:57;8.67;;;4.37;;
6485;SDS011;3276;48.490;9.222;2024-02-21T00:11:22;10.27;;;4.53;;
6485;SDS011;3276;48.490;9.222;2024-02-21T00:13:48;16.63;;;4.50;;
6485;SDS011;3276;48.490;9.222;2024-02-21T00:16:15;9.43;;;4.40;;
6485;SDS011;3276;48.490;9.222;2024-02-21T00:18:41;9.50;;;3.37;;
6485;SDS011;3276;48.490;9.222;2024-02-21T00:21:06;7.20;;;4.70;;
6485;SDS011;3276;48.490;9.222;2024-02-21T00:23:32;9.03;;;4.53;;
6485;SDS011;3276;48.490;9.222;2024-02-21T00:25:57;11.63;;;4.60;;
6485;SDS011;3276;48.490;9.222;2024-02-21T00:28:23;6.87;;;4.00;;
6485;SDS011;3276;48.490;9.222;2024-02-21T00:30:48;7.57;;;3.90;;
6485;SDS011;3276;48.490;9.222;2024-02-21T00:33:15;6.70;;;4.27;;
6485;SDS011;3276;48.490;9.222;2024-02-21T00:35:41;7.20;;;4.40;;
6485;SDS011;3276;48.490;9.222;2024-02-21T00:38:07;6.53;;;4.27;;
6485;SDS011;3276;48.490;9.222;2024-02-21T00:40:32;6.23;;;4.20;;
6485;SDS011;3276;48.490;9.222;2024-02-21T00:42:58;8.97;;;4.50;;
6485;SDS011;3276;48.490;9.222;2024-02-21T00:45:24;6.80;;;4.40;;
6485;SDS011;3276;48.490;9.222;2024-02-21T00:47:50;5.03;;;4.00;;
6485;SDS011;3276;48.490;9.222;2024-02-21T00:50:15;5.97;;;3.73;;
6485;SDS011;3276;48.490;9.222;2024-02-21T00:52:41;5.73;;;4.30;;
6485;SDS011;3276;48.490;9.222;2024-02-21T00:55:06;6.53;;;3.90;;
6485;SDS011;3276;48.490;9.222;2024-02-21T00:57:32;9.97;;;4.50;;
6485;SDS011;3276;48.490;9.222;2024-02-21T00:59:58;7.70;;;4.37;;
6485;SDS011;3276;48.490;9.222;2024-02-21T01:02:23;8.03;;;4.10;;
6485;SDS011;3276;48.490;9.222;2024-02-21T01:04:49;12.00;;;4.00;;
6485;SDS011;3276;48.490;9.222;2024-02-21T01:07:14;8.87;;;4.30;;
6485;SDS011;3276;48.490;9.222;2024-02-21T01:09:40;7.97;;;4.07;;
6485;SDS011;3276;48.490;9.222;2024-02-21T01:12:06;9.23;;;3.43;;
6485;SDS011;3276;48.490;9.222;2024-02-21T01:14:31;5.63;;;3.70;;
6485;SDS011;3276;48.490;9.222;2024-02-21T01:16:57;7.83;;;4.10;;
6485;SDS011;3276;48.490;9.222;2024-02-21T01:19:22;6.67;;;4.20;;
6485;SDS011;3276;48.490;9.222;2024-02-21T01:21:48;11.13;;;5.50;;
6485;SDS011;3276;48.490;9.222;2024-02-21T01:24:13;9.60;;;4.80;;
6485;SDS011;3276;48.490;9.222;2024-02-21T01:26:39;13.17;;;4.80;;
6485;SDS011;3276;48.490;9.222;2024-02-21T01:29:05;13.10;;;5.80;;
6485;SDS011;3276;48.490;9.222;2024-02-21T01:31:31;6.60;;;3.80;;
6485;SDS011;3276;48.490;9.222;2024-02-21T01:33:56;8.10;;;4.17;;
6485;SDS011;3276;48.490;9.222;2024-02-21T01:36:23;7.73;;;5.13;;
6485;SDS011;3276;48.490;9.222;2024-02-21T01:38:48;9.00;;;4.27;;
6485;SDS011;3276;48.490;9.222;2024-02-21T01:41:14;7.40;;;3.80;;
6485;SDS011;3276;48.490;9.222;2024-02-21T01:43:41;11.83;;;4.73;;
6485;SDS011;3276;48.490;9.222;2024-02-21T01:46:07;9.07;;;4.80;;
6485;SDS011;3276;48.490;9.222;2024-02-21T01:48:32;5.23;;;3.10;;
6485;SDS011;3276;48.490;9.222;2024-02-21T01:50:59;6.40;;;3.57;;
6485;SDS011;3276;48.490;9.222;2024-02-21T01:53:27;4.13;;;3.00;;
6485;SDS011;3276;48.490;9.222;2024-02-21T01:56:00;8.03;;;3.90;;
6485;SDS011;3276;48.490;9.222;2024-02-21T01:58:26;8.67;;;3.87;;
6485;SDS011;3276;48.490;9.222;2024-02-21T02:00:53;5.20;;;2.33;;
6485;SDS011;3276;48.490;9.222;2024-02-21T02:03:22;12.00;;;4.20;;
6485;SDS011;3276;48.490;9.222;2024-02-21T02:05:48;12.87;;;4.07;;
6485;SDS011;3276;48.490;9.222;2024-02-21T02:08:14;4.70;;;3.37;;
6485;SDS011;3276;48.490;9.222;2024-02-21T02:10:41;9.00;;;5.90;;
6485;SDS011;3276;48.490;9.222;2024-02-21T02:13:07;5.77;;;3.43;;
6485;SDS011;3276;48.490;9.222;2024-02-21T02:15:47;5.77;;;4.10;;
6485;SDS011;3276;48.490;9.222;2024-02-21T02:18:14;8.53;;;4.40;;
6485;SDS011;3276;48.490;9.222;2024-02-21T02:20:41;10.03;;;4.40;;
6485;SDS011;3276;48.490;9.222;2024-02-21T02:23:25;13.00;;;4.00;;
6485;SDS011;3276;48.490;9.222;2024-02-21T02:25:58;10.00;;;3.30;;
6485;SDS011;3276;48.490;9.222;2024-02-21T02:28:24;4.10;;;2.97;;
6485;SDS011;3276;48.490;9.222;2024-02-21T02:30:50;9.10;;;4.20;;
6485;SDS011;3276;48.490;9.222;2024-02-21T02:33:16;9.90;;;3.50;;
6485;SDS011;3276;48.490;9.222;2024-02-21T02:35:44;7.37;;;3.87;;
6485;SDS011;3276;48.490;9.222;2024-02-21T02:38:10;3.97;;;2.60;;
6485;SDS011;3276;48.490;9.222;2024-02-21T02:40:37;6.07;;;3.07;;
6485;SDS011;3276;48.490;9.222;2024-02-21T02:43:03;9.70;;;3.47;;
6485;SDS011;3276;48.490;9.222;2024-02-21T02:45:29;5.10;;;2.57;;
6485;SDS011;3276;48.490;9.222;2024-02-21T02:47:56;8.40;;;3.27;;
6485;SDS011;3276;48.490;9.222;2024-02-21T02:50:26;12.87;;;4.00;;
6485;SDS011;3276;48.490;9.222;2024-02-21T02:52:52;8.07;;;2.90;;
6485;SDS011;3276;48.490;9.222;2024-02-21T02:55:18;6.50;;;3.33;;
6485;SDS011;3276;48.490;9.222;2024-02-21T02:57:44;11.57;;;2.63;;
6485;SDS011;3276;48.490;9.222;2024-02-21T03:00:10;6.10;;;2.93;;
6485;SDS011;3276;48.490;9.222;2024-02-21T03:02:38;6.50;;;3.10;;
6485;SDS011;3276;48.490;9.222;2024-02-21T03:05:38;5.17;;;2.60;;
6485;SDS011;3276;48.490;9.222;2024-02-21T03:07:57;7.23;;;3.63;;
6485;SDS011;3276;48.490;9.222;2024-02-21T03:10:22;8.90;;;2.97;;
6485;SDS011;3276;48.490;9.222;2024-02-21T03:12:48;7.17;;;2.30;;
6485;SDS011;3276;48.490;9.222;2024-02-21T03:15:13;8.00;;;2.77;;
6485;SDS011;3276;48.490;9.222;2024-02-21T03:17:40;6.10;;;2.87;;
6485;SDS011;3276;48.490;9.222;2024-02-21T03:20:06;3.33;;;2.10;;
6485;SDS011;3276;48.490;9.222;2024-02-21T03:22:34;4.50;;;2.60;;
6485;SDS011;3276;48.490;9.222;2024-02-21T03:25:00;7.93;;;3.27;;
6485;SDS011;3276;48.490;9.222;2024-02-21T03:27:26;17.40;;;3.33;;
6485;SDS011;3276;48.490;9.222;2024-02-21T03:29:52;9.07;;;2.80;;
6485;SDS011;3276;48.490;9.222;2024-02-21T03:32:17;6.17;;;2.80;;
6485;SDS011;3276;48.490;9.222;2024-02-21T03:34:43;4.43;;;2.43;;
6485;SDS011;3276;48.490;9.222;2024-02-21T03:37:08;8.20;;;2.87;;
6485;SDS011;3276;48.490;9.222;2024-02-21T03:39:34;4.60;;;2.20;;
6485;SDS011;3276;48.490;9.222;2024-02-21T03:42:00;7.60;;;2.70;;
6485;SDS011;3276;48.490;9.222;2024-02-21T03:44:29;4.90;;;2.07;;
6485;SDS011;3276;48.490;9.222;2024-02-21T03:46:58;7.70;;;2.70;;
6485;SDS011;3276;48.490;9.222;2024-02-21T03:49:25;4.83;;;2.90;;
6485;SDS011;3276;48.490;9.222;2024-02-21T03:51:50;8.43;;;2.97;;
6485;SDS011;3276;48.490;9.222;2024-02-21T03:54:16;6.80;;;2.60;;
6485;SDS011;3276;48.490;9.222;2024-02-21T03:56:41;4.83;;;2.30;;
6485;SDS011;3276;48.490;9.222;2024-02-21T03:59:07;6.80;;;2.97;;
6485;SDS011;3276;48.490;9.222;2024-02-21T04:01:33;6.87;;;2.30;;
6485;SDS011;3276;48.490;9.222;2024-02-21T04:03:59;3.70;;;2.20;;
6485;SDS011;3276;48.490;9.222;2024-02-21T04:06:25;6.40;;;2.27;;
6485;SDS011;3276;48.490;9.222;2024-02-21T04:08:50;18.13;;;3.00;;
6485;SDS011;3276;48.490;9.222;2024-02-21T04:11:16;6.13;;;2.50;;
6485;SDS011;3276;48.490;9.222;2024-02-21T04:13:43;3.90;;;2.50;;
6485;SDS011;3276;48.490;9.222;2024-02-21T04:16:09;7.63;;;2.40;;
6485;SDS011;3276;48.490;9.222;2024-02-21T04:18:35;7.00;;;3.00;;
6485;SDS011;3276;48.490;9.222;2024-02-21T04:21:00;6.03;;;2.63;;
6485;SDS011;3276;48.490;9.222;2024-02-21T04:23:26;3.80;;;2.70;;
6485;SDS011;3276;48.490;9.222;2024-02-21T04:25:51;6.50;;;3.30;;
6485;SDS011;3276;48.490;9.222;2024-02-21T04:28:17;6.70;;;3.47;;
6485;SDS011;3276;48.490;9.222;2024-02-21T04:30:43;5.70;;;3.80;;
6485;SDS011;3276;48.490;9.222;2024-02-21T04:33:08;4.80;;;3.80;;
6485;SDS011;3276;48.490;9.222;2024-02-21T04:35:35;7.83;;;3.73;;
6485;SDS011;3276;48.490;9.222;2024-02-21T04:38:01;7.57;;;4.27;;
6485;SDS011;3276;48.490;9.222;2024-02-21T04:40:27;6.47;;;3.73;;
6485;SDS011;3276;48.490;9.222;2024-02-21T04:42:53;6.00;;;4.43;;
6485;SDS011;3276;48.490;9.222;2024-02-21T04:45:18;4.10;;;3.70;;
6485;SDS011;3276;48.490;9.222;2024-02-21T04:47:44;7.97;;;4.40;;
6485;SDS011;3276;48.490;9.222;2024-02-21T04:50:09;5.90;;;4.00;;
6485;SDS011;3276;48.490;9.222;2024-02-21T04:52:35;8.20;;;4.93;;
6485;SDS011;3276;48.490;9.222;2024-02-21T04:55:01;11.90;;;5.10;;
6485;SDS011;3276;48.490;9.222;2024-02-21T04:57:26;5.63;;;3.70;;
6485;SDS011;3276;48.490;9.222;2024-02-21T04:59:52;6.93;;;5.07;;
6485;SDS011;3276;48.490;9.222;2024-02-21T05:02:17;6.60;;;3.73;;
6485;SDS011;3276;48.490;9.222;2024-02-21T05:04:45;7.30;;;3.60;;
6485;SDS011;3276;48.490;9.222;2024-02-21T05:07:10;8.40;;;3.87;;
6485;SDS011;3276;48.490;9.222;2024-02-21T05:09:36;9.23;;;3.83;;
6485;SDS011;3276;48.490;9.222;2024-02-21T05:12:02;6.97;;;4.80;;
6485;SDS011;3276;48.490;9.222;2024-02-21T05:14:28;7.60;;;5.30;;
6485;SDS011;3276;48.490;9.222;2024-02-21T05:16:54;7.93;;;4.43;;
6485;SDS011;3276;48.490;9.222;2024-02-21T05:19:20;5.53;;;2.73;;
6485;SDS011;3276;48.490;9.222;2024-02-21T05:21:45;12.80;;;5.80;;
6485;SDS011;3276;48.490;9.222;2024-02-21T05:24:11;9.60;;;4.57;;
6485;SDS011;3276;48.490;9.222;2024-02-21T05:26:37;5.10;;;3.30;;
6485;SDS011;3276;48.490;9.222;2024-02-21T05:29:02;8.03;;;4.77;;
6485;SDS011;3276;48.490;9.222;2024-02-21T05:31:43;5.03;;;4.13;;
6485;SDS011;3276;48.490;9.222;2024-02-21T05:34:20;13.00;;;4.60;;
6485;SDS011;3276;48.490;9.222;2024-02-21T05:36:46;10.60;;;3.78;;
6485;SDS011;3276;48.490;9.222;2024-02-21T05:39:13;12.70;;;4.70;;
6485;SDS011;3276;48.490;9.222;2024-02-21T05:41:39;7.83;;;4.30;;
6485;SDS011;3276;48.490;9.222;2024-02-21T05:44:05;9.97;;;4.30;;
6485;SDS011;3276;48.490;9.222;2024-02-21T05:46:30;7.63;;;4.07;;
6485;SDS011;3276;48.490;9.222;2024-02-21T05:48:56;11.13;;;4.70;;
6485;SDS011;3276;48.490;9.222;2024-02-21T05:51:21;6.33;;;4.43;;
6485;SDS011;3276;48.490;9.222;2024-02-21T05:53:47;7.07;;;4.17;;
6485;SDS011;3276;48.490;9.222;2024-02-21T05:56:13;6.83;;;4.07;;
6485;SDS011;3276;48.490;9.222;2024-02-21T05:58:39;5.57;;;4.10;;
6485;SDS011;3276;48.490;9.222;2024-02-21T06:01:05;9.97;;;4.43;;
6485;SDS011;3276;48.490;9.222;2024-02-21T06:03:32;4.63;;;4.00;;
6485;SDS011;3276;48.490;9.222;2024-02-21T06:05:58;10.30;;;5.13;;
6485;SDS011;3276;48.490;9.222;2024-02-21T06:08:24;6.85;;;3.90;;
6485;SDS011;3276;48.490;9.222;2024-02-21T06:10:50;5.93;;;3.57;;
6485;SDS011;3276;48.490;9.222;2024-02-21T06:13:25;8.82;;;4.85;;
6485;SDS011;3276;48.490;9.222;2024-02-21T06:15:51;8.48;;;4.10;;
6485;SDS011;3276;48.490;9.222;2024-02-21T06:18:17;8.53;;;5.37;;
6485;SDS011;3276;48.490;9.222;2024-02-21T06:20:43;6.53;;;4.70;;
6485;SDS011;3276;48.490;9.222;2024-02-21T06:23:09;12.18;;;4.13;;
6485;SDS011;3276;48.490;9.222;2024-02-21T06:25:35;7.47;;;4.03;;
6485;SDS011;3276;48.490;9.222;2024-02-21T06:28:00;4.80;;;4.13;;
6485;SDS011;3276;48.490;9.222;2024-02-21T06:30:26;5.63;;;4.30;;
6485;SDS011;3276;48.490;9.222;2024-02-21T06:32:52;7.80;;;4.13;;
6485;SDS011;3276;48.490;9.222;2024-02-21T06:35:20;7.88;;;3.80;;
6485;SDS011;3276;48.490;9.222;2024-02-21T06:37:46;10.23;;;4.60;;
6485;SDS011;3276;48.490;9.222;2024-02-21T06:40:15;6.68;;;4.45;;
6485;SDS011;3276;48.490;9.222;2024-02-21T06:42:42;7.18;;;4.47;;
6485;SDS011;3276;48.490;9.222;2024-02-21T06:45:07;8.53;;;4.67;;
6485;SDS011;3276;48.490;9.222;2024-02-21T06:47:33;6.97;;;4.83;;
6485;SDS011;3276;48.490;9.222;2024-02-21T06:49:58;7.57;;;3.90;;
6485;SDS011;3276;48.490;9.222;2024-02-21T06:52:24;4.87;;;3.60;;
6485;SDS011;3276;48.490;9.222;2024-02-21T06:54:50;8.37;;;4.80;;
6485;SDS011;3276;48.490;9.222;2024-02-21T06:57:15;11.60;;;4.67;;
6485;SDS011;3276;48.490;9.222;2024-02-21T06:59:41;9.47;;;5.80;;
6485;SDS011;3276;48.490;9.222;2024-02-21T07:02:07;8.67;;;4.30;;
6485;SDS011;3276;48.490;9.222;2024-02-21T07:04:33;10.10;;;4.87;;
6485;SDS011;3276;48.490;9.222;2024-02-21T07:06:59;10.20;;;5.60;;
6485;SDS011;3276;48.490;9.222;2024-02-21T07:09:24;12.13;;;5.43;;
6485;SDS011;3276;48.490;9.222;2024-02-21T07:11:50;9.20;;;4.77;;
6485;SDS011;3276;48.490;9.222;2024-02-21T07:14:15;12.77;;;4.47;;
6485;SDS011;3276;48.490;9.222;2024-02-21T07:16:41;7.27;;;4.70;;
6485;SDS011;3276;48.490;9.222;2024-02-21T07:19:06;8.97;;;4.60;;
6485;SDS011;3276;48.490;9.222;2024-02-21T07:21:32;9.63;;;3.97;;
6485;SDS011;3276;48.490;9.222;2024-02-21T07:23:58;6.30;;;4.63;;
6485;SDS011;3276;48.490;9.222;2024-02-21T07:26:23;8.00;;;4.10;;
6485;SDS011;3276;48.490;9.222;2024-02-21T07:28:49;9.40;;;4.00;;
6485;SDS011;3276;48.490;9.222;2024-02-21T07:31:14;4.80;;;4.03;;
6485;SDS011;3276;48.490;9.222;2024-02-21T07:33:40;9.83;;;4.17;;
6485;SDS011;3276;48.490;9.222;2024-02-21T07:36:06;9.50;;;4.70;;
6485;SDS011;3276;48.490;9.222;2024-02-21T07:38:33;4.97;;;4.23;;
6485;SDS011;3276;48.490;9.222;2024-02-21T07:40:59;8.10;;;4.80;;
6485;SDS011;3276;48.490;9.222;2024-02-21T07:43:24;10.40;;;5.63;;
6485;SDS011;3276;48.490;9.222;2024-02-21T07:45:51;11.30;;;4.77;;
6485;SDS011;3276;48.490;9.222;2024-02-21T07:48:18;8.90;;;5.60;;
6485;SDS011;3276;48.490;9.222;2024-02-21T07:50:44;7.17;;;4.80;;
6485;SDS011;3276;48.490;9.222;2024-02-21T07:53:09;7.30;;;4.50;;
6485;SDS011;3276;48.490;9.222;2024-02-21T07:55:35;9.20;;;4.80;;
6485;SDS011;3276;48.490;9.222;2024-02-21T07:58:01;9.37;;;5.00;;
6485;SDS011;3276;48.490;9.222;2024-02-21T08:00:26;14.40;;;4.70;;
6485;SDS011;3276;48.490;9.222;2024-02-21T08:02:52;8.10;;;4.77;;
6485;SDS011;3276;48.490;9.222;2024-02-21T08:05:18;6.13;;;4.70;;
6485;SDS011;3276;48.490;9.222;2024-02-21T08:07:43;17.03;;;4.97;;
6485;SDS011;3276;48.490;9.222;2024-02-21T08:10:09;6.17;;;4.00;;
6485;SDS011;3276;48.490;9.222;2024-02-21T08:12:34;9.40;;;4.67;;
6485;SDS011;3276;48.490;9.222;2024-02-21T08:15:00;7.90;;;4.67;;
6485;SDS011;3276;48.490;9.222;2024-02-21T08:17:28;9.47;;;4.93;;
6485;SDS011;3276;48.490;9.222;2024-02-21T08:19:54;9.67;;;5.10;;
6485;SDS011;3276;48.490;9.222;2024-02-21T08:22:20;11.80;;;5.13;;
6485;SDS011;3276;48.490;9.222;2024-02-21T08:24:45;7.77;;;4.10;;
6485;SDS011;3276;48.490;9.222;2024-02-21T08:27:11;8.90;;;4.83;;
6485;SDS011;3276;48.490;9.222;2024-02-21T08:29:36;8.40;;;4.77;;
6485;SDS011;3276;48.490;9.222;2024-02-21T08:32:02;7.90;;;5.30;;
6485;SDS011;3276;48.490;9.222;2024-02-21T08:34:28;6.23;;;4.13;;
6485;SDS011;3276;48.490;9.222;2024-02-21T08:36:55;8.50;;;4.93;;
6485;SDS011;3276;48.490;9.222;2024-02-21T08:39:21;8.23;;;4.60;;
6485;SDS011;3276;48.490;9.222;2024-02-21T08:41:49;6.80;;;4.63;;
6485;SDS011;3276;48.490;9.222;2024-02-21T08:44:16;11.30;;;4.57;;
6485;SDS011;3276;48.490;9.222;2024-02-21T08:46:41;7.83;;;4.80;;
6485;SDS011;3276;48.490;9.222;2024-02-21T08:49:07;9.43;;;5.17;;
6485;SDS011;3276;48.490;9.222;2024-02-21T08:51:35;4.67;;;3.57;;
6485;SDS011;3276;48.490;9.222;2024-02-21T08:54:00;9.60;;;5.50;;
6485;SDS011;3276;48.490;9.222;2024-02-21T08:56:29;7.83;;;4.90;;
6485;SDS011;3276;48.490;9.222;2024-02-21T08:58:55;13.00;;;4.90;;
6485;SDS011;3276;48.490;9.222;2024-02-21T09:01:22;6.53;;;4.00;;
6485;SDS011;3276;48.490;9.222;2024-02-21T09:03:48;7.90;;;3.40;;
6485;SDS011;3276;48.490;9.222;2024-02-21T09:06:17;9.97;;;3.90;;
6485;SDS011;3276;48.490;9.222;2024-02-21T09:08:43;6.60;;;3.40;;
6485;SDS011;3276;48.490;9.222;2024-02-21T09:11:08;5.80;;;4.10;;
6485;SDS011;3276;48.490;9.222;2024-02-21T09:13:34;10.07;;;4.67;;
6485;SDS011;3276;48.490;9.222;2024-02-21T09:16:00;6.53;;;3.20;;
6485;SDS011;3276;48.490;9.222;2024-02-21T09:18:25;5.20;;;3.60;;
6485;SDS011;3276;48.490;9.222;2024-02-21T09:20:51;6.13;;;3.80;;
6485;SDS011;3276;48.490;9.222;2024-02-21T09:23:16;7.80;;;3.97;;
6485;SDS011;3276;48.490;9.222;2024-02-21T09:25:44;9.70;;;4.17;;
6485;SDS011;3276;48.490;9.222;2024-02-21T09:28:11;7.70;;;4.30;;
6485;SDS011;3276;48.490;9.222;2024-02-21T09:30:38;5.50;;;3.77;;
6485;SDS011;3276;48.490;9.222;2024-02-21T09:33:03;10.40;;;4.23;;
6485;SDS011;3276;48.490;9.222;2024-02-21T09:35:30;7.50;;;4.23;;
6485;SDS011;3276;48.490;9.222;2024-02-21T09:37:56;7.30;;;4.00;;
6485;SDS011;3276;48.490;9.222;2024-02-21T09:40:21;6.80;;;4.00;;
6485;SDS011;3276;48.490;9.222;2024-02-21T09:42:47;6.53;;;3.77;;
6485;SDS011;3276;48.490;9.222;2024-02-21T09:45:16;4.50;;;3.97;;
6485;SDS011;3276;48.490;9.222;2024-02-21T09:50:52;7.40;;;3.40;;
6485;SDS011;3276;48.490;9.222;2024-02-21T09:53:20;7.17;;;3.20;;
6485;SDS011;3276;48.490;9.222;2024-02-21T09:55:47;8.13;;;4.07;;
6485;SDS011;3276;48.490;9.222;2024-02-21T09:58:13;7.63;;;3.27;;
6485;SDS011;3276;48.490;9.222;2024-02-21T10:00:40;5.80;;;3.50;;
6485;SDS011;3276;48.490;9.222;2024-02-21T10:03:05;3.87;;;3.03;;
6485;SDS011;3276;48.490;9.222;2024-02-21T10:05:36;5.47;;;3.10;;
6485;SDS011;3276;48.490;9.222;2024-02-21T10:08:03;5.30;;;3.40;;
6485;SDS011;3276;48.490;9.222;2024-02-21T10:10:29;6.40;;;4.03;;
6485;SDS011;3276;48.490;9.222;2024-02-21T10:13:05;9.87;;;3.30;;
6485;SDS011;3276;48.490;9.222;2024-02-21T10:15:31;5.03;;;4.10;;
6485;SDS011;3276;48.490;9.222;2024-02-21T10:17:59;6.73;;;4.10;;
6485;SDS011;3276;48.490;9.222;2024-02-21T10:20:26;8.10;;;3.90;;
6485;SDS011;3276;48.490;9.222;2024-02-21T10:23:01;11.90;;;3.23;;
6485;SDS011;3276;48.490;9.222;2024-02-21T10:25:32;4.93;;;3.27;;
6485;SDS011;3276;48.490;9.222;2024-02-21T10:27:58;6.60;;;4.27;;
6485;SDS011;3276;48.490;9.222;2024-02-21T10:30:24;4.93;;;3.67;;
6485;SDS011;3276;48.490;9.222;2024-02-21T10:35:24;3.70;;;2.80;;
6485;SDS011;3276;48.490;9.222;2024-02-21T10:37:51;6.67;;;3.83;;
6485;SDS011;3276;48.490;9.222;2024-02-21T10:40:20;5.43;;;3.67;;
6485;SDS011;3276;48.490;9.222;2024-02-21T10:42:50;9.50;;;3.70;;
6485;SDS011;3276;48.490;9.222;2024-02-21T10:45:27;5.53;;;3.87;;
6485;SDS011;3276;48.490;9.222;2024-02-21T10:48:08;6.67;;;3.77;;
6485;SDS011;3276;48.490;9.222;2024-02-21T10:50:45;3.50;;;3.17;;
6485;SDS011;3276;48.490;9.222;2024-02-21T10:58:50;7.07;;;3.47;;
6485;SDS011;3276;48.490;9.222;2024-02-21T11:01:18;6.37;;;3.80;;
6485;SDS011;3276;48.490;9.222;2024-02-21T11:03:44;5.47;;;3.40;;
6485;SDS011;3276;48.490;9.222;2024-02-21T11:06:11;4.50;;;3.50;;
6485;SDS011;3276;48.490;9.222;2024-02-21T11:08:38;5.87;;;2.90;;
6485;SDS011;3276;48.490;9.222;2024-02-21T11:11:04;4.10;;;3.07;;
6485;SDS011;3276;48.490;9.222;2024-02-21T11:13:40;7.40;;;3.60;;
6485;SDS011;3276;48.490;9.222;2024-02-21T11:16:09;6.67;;;3.60;;
6485;SDS011;3276;48.490;9.222;2024-02-21T11:18:36;9.30;;;3.20;;
6485;SDS011;3276;48.490;9.222;2024-02-21T11:21:04;4.40;;;3.37;;
6485;SDS011;3276;48.490;9.222;2024-02-21T11:23:31;8.80;;;4.20;;
6485;SDS011;3276;48.490;9.222;2024-02-21T11:26:09;9.60;;;3.87;;
6485;SDS011;3276;48.490;9.222;2024-02-21T11:28:42;6.33;;;4.63;;
6485;SDS011;3276;48.490;9.222;2024-02-21T11:31:11;3.93;;;3.00;;
6485;SDS011;3276;48.490;9.222;2024-02-21T11:33:41;6.23;;;3.40;;
6485;SDS011;3276;48.490;9.222;2024-02-21T11:36:09;6.43;;;3.10;;
6485;SDS011;3276;48.490;9.222;2024-02-21T11:38:34;4.43;;;3.47;;
6485;SDS011;3276;48.490;9.222;2024-02-21T11:41:00;3.83;;;3.43;;
6485;SDS011;3276;48.490;9.222;2024-02-21T11:43:26;4.73;;;3.80;;
6485;SDS011;3276;48.490;9.222;2024-02-21T11:46:01;3.67;;;3.37;;
6485;SDS011;3276;48.490;9.222;2024-02-21T11:48:28;7.00;;;3.80;;
6485;SDS011;3276;48.490;9.222;2024-02-21T11:50:55;4.77;;;3.67;;
6485;SDS011;3276;48.490;9.222;2024-02-21T11:53:21;5.97;;;3.33;;
6485;SDS011;3276;48.490;9.222;2024-02-21T11:55:47;5.37;;;3.27;;
6485;SDS011;3276;48.490;9.222;2024-02-21T11:58:12;9.20;;;3.33;;
6485;SDS011;3276;48.490;9.222;2024-02-21T12:00:38;3.47;;;3.17;;
6485;SDS011;3276;48.490;9.222;2024-02-21T12:03:05;4.87;;;3.27;;
6485;SDS011;3276;48.490;9.222;2024-02-21T12:05:30;4.83;;;3.60;;
6485;SDS011;3276;48.490;9.222;2024-02-21T12:07:57;7.17;;;3.87;;
6485;SDS011;3276;48.490;9.222;2024-02-21T12:10:26;4.53;;;2.83;;
6485;SDS011;3276;48.490;9.222;2024-02-21T12:12:52;3.57;;;3.27;;
6485;SDS011;3276;48.490;9.222;2024-02-21T12:15:19;4.97;;;3.80;;
6485;SDS011;3276;48.490;9.222;2024-02-21T12:17:46;4.77;;;4.33;;
6485;SDS011;3276;48.490;9.222;2024-02-21T12:20:11;7.77;;;4.00;;
6485;SDS011;3276;48.490;9.222;2024-02-21T12:22:38;4.40;;;3.60;;
6485;SDS011;3276;48.490;9.222;2024-02-21T12:25:04;5.37;;;3.43;;
6485;SDS011;3276;48.490;9.222;2024-02-21T12:27:40;5.20;;;3.00;;
6485;SDS011;3276;48.490;9.222;2024-02-21T12:30:06;4.87;;;3.70;;
6485;SDS011;3276;48.490;9.222;2024-02-21T12:32:35;4.80;;;4.00;;
6485;SDS011;3276;48.490;9.222;2024-02-21T12:35:01;3.40;;;3.10;;
6485;SDS011;3276;48.490;9.222;2024-02-21T12:37:27;3.10;;;2.80;;
6485;SDS011;3276;48.490;9.222;2024-02-21T12:39:52;7.90;;;3.60;;
6485;SDS011;3276;48.490;9.222;2024-02-21T12:42:18;5.10;;;3.03;;
6485;SDS011;3276;48.490;9.222;2024-02-21T12:44:44;3.67;;;2.70;;
6485;SDS011;3276;48.490;9.222;2024-02-21T12:47:10;6.30;;;2.50;;
6485;SDS011;3276;48.490;9.222;2024-02-21T12:49:36;6.13;;;3.00;;
6485;SDS011;3276;48.490;9.222;2024-02-21T12:52:02;3.73;;;3.23;;
6485;SDS011;3276;48.490;9.222;2024-02-21T12:54:28;2.93;;;2.60;;
6485;SDS011;3276;48.490;9.222;2024-02-21T12:56:55;5.07;;;3.57;;
6485;SDS011;3276;48.490;9.222;2024-02-21T12:59:20;3.47;;;2.60;;
6485;SDS011;3276;48.490;9.222;2024-02-21T13:01:46;4.57;;;4.17;;
6485;SDS011;3276;48.490;9.222;2024-02-21T13:04:12;6.00;;;4.43;;
6485;SDS011;3276;48.490;9.222;2024-02-21T13:06:37;4.60;;;3.33;;
6485;SDS011;3276;48.490;9.222;2024-02-21T13:09:03;3.73;;;2.80;;
6485;SDS011;3276;48.490;9.222;2024-02-21T13:11:32;4.50;;;3.07;;
6485;SDS011;3276;48.490;9.222;2024-02-21T13:13:59;3.40;;;2.40;;
6485;SDS011;3276;48.490;9.222;2024-02-21T13:16:25;5.93;;;3.53;;
6485;SDS011;3276;48.490;9.222;2024-02-21T13:18:51;4.33;;;3.20;;
6485;SDS011;3276;48.490;9.222;2024-02-21T13:21:16;4.13;;;3.40;;
6485;SDS011;3276;48.490;9.222;2024-02-21T13:23:42;4.33;;;3.53;;
6485;SDS011;3276;48.490;9.222;2024-02-21T13:26:09;3.47;;;2.90;;
6485;SDS011;3276;48.490;9.222;2024-02-21T13:28:35;3.70;;;3.10;;
6485;SDS011;3276;48.490;9.222;2024-02-21T13:31:01;6.30;;;3.40;;
6485;SDS011;3276;48.490;9.222;2024-02-21T13:33:28;4.27;;;3.30;;
6485;SDS011;3276;48.490;9.222;2024-02-21T13:35:53;3.13;;;2.57;;
6485;SDS011;3276;48.490;9.222;2024-02-21T13:38:19;2.83;;;2.50;;
6485;SDS011;3276;48.490;9.222;2024-02-21T13:40:45;4.20;;;2.90;;
6485;SDS011;3276;48.490;9.222;2024-02-21T13:43:10;4.57;;;3.20;;
6485;SDS011;3276;48.490;9.222;2024-02-21T13:45:37;3.53;;;2.87;;
6485;SDS011;3276;48.490;9.222;2024-02-21T13:48:03;3.47;;;2.90;;
6485;SDS011;3276;48.490;9.222;2024-02-21T13:50:31;4.10;;;2.90;;
6485;SDS011;3276;48.490;9.222;2024-02-21T13:52:57;5.60;;;3.73;;
6485;SDS011;3276;48.490;9.222;2024-02-21T13:55:22;3.60;;;2.73;;
6485;SDS011;3276;48.490;9.222;2024-02-21T13:57:51;3.00;;;2.50;;
6485;SDS011;3276;48.490;9.222;2024-02-21T14:00:17;5.10;;;3.37;;
6485;SDS011;3276;48.490;9.222;2024-02-21T14:02:43;7.50;;;3.07;;
6485;SDS011;3276;48.490;9.222;2024-02-21T14:05:09;6.43;;;3.57;;
6485;SDS011;3276;48.490;9.222;2024-02-21T14:07:35;3.63;;;3.33;;
6485;SDS011;3276;48.490;9.222;2024-02-21T14:10:00;3.43;;;2.90;;
6485;SDS011;3276;48.490;9.222;2024-02-21T14:12:26;5.03;;;3.33;;
6485;SDS011;3276;48.490;9.222;2024-02-21T14:14:52;3.53;;;2.73;;
6485;SDS011;3276;48.490;9.222;2024-02-21T14:17:18;5.90;;;3.57;;
6485;SDS011;3276;48.490;9.222;2024-02-21T14:19:45;4.20;;;3.10;;
6485;SDS011;3276;48.490;9.222;2024-02-21T14:22:10;5.10;;;3.03;;
6485;SDS011;3276;48.490;9.222;2024-02-21T14:24:36;5.90;;;2.67;;
6485;SDS011;3276;48.490;9.222;2024-02-21T14:27:02;3.43;;;3.07;;
6485;SDS011;3276;48.490;9.222;2024-02-21T14:29:28;4.00;;;3.00;;
6485;SDS011;3276;48.490;9.222;2024-02-21T14:31:54;3.57;;;2.90;;
6485;SDS011;3276;48.490;9.222;2024-02-21T14:34:19;4.40;;;2.87;;
6485;SDS011;3276;48.490;9.222;2024-02-21T14:36:45;4.07;;;2.67;;
6485;SDS011;3276;48.490;9.222;2024-02-21T14:39:10;4.37;;;3.17;;
6485;SDS011;3276;48.490;9.222;2024-02-21T14:41:36;3.10;;;2.50;;
6485;SDS011;3276;48.490;9.222;2024-02-21T14:44:02;4.93;;;3.13;;
6485;SDS011;3276;48.490;9.222;2024-02-21T14:46:28;3.90;;;2.90;;
6485;SDS011;3276;48.490;9.222;2024-02-21T14:48:54;5.80;;;3.07;;
6485;SDS011;3276;48.490;9.222;2024-02-21T14:51:20;3.10;;;2.80;;
6485;SDS011;3276;48.490;9.222;2024-02-21T14:53:45;5.27;;;3.10;;
6485;SDS011;3276;48.490;9.222;2024-02-21T14:56:15;3.13;;;2.83;;
6485;SDS011;3276;48.490;9.222;2024-02-21T14:58:42;4.53;;;2.80;;
6485;SDS011;3276;48.490;9.222;2024-02-21T15:01:08;5.00;;;3.40;;
6485;SDS011;3276;48.490;9.222;2024-02-21T15:03:33;5.80;;;3.07;;
6485;SDS011;3276;48.490;9.222;2024-02-21T15:05:59;3.40;;;3.10;;
6485;SDS011;3276;48.490;9.222;2024-02-21T15:08:26;5.00;;;3.07;;
6485;SDS011;3276;48.490;9.222;2024-02-21T15:10:52;3.37;;;3.07;;
6485;SDS011;3276;48.490;9.222;2024-02-21T15:13:18;4.53;;;3.20;;
6485;SDS011;3276;48.490;9.222;2024-02-21T15:15:44;5.77;;;3.57;;
6485;SDS011;3276;48.490;9.222;2024-02-21T15:18:09;7.40;;;2.70;;
6485;SDS011;3276;48.490;9.222;2024-02-21T15:20:35;2.77;;;2.57;;
6485;SDS011;3276;48.490;9.222;2024-02-21T15:23:02;4.73;;;3.30;;